sensor_id;sensor_type;location;lat;lon;timestamp;P1;durP1;ratioP1;P2;durP2;ratioP2
11653;SDS011;5883;48.818;9.114;2023-01-19T00:00:28;8.70;;;5.70;;
11653;SDS011;5883;48.818;9.114;2023-01-19T00:02:55;10.70;;;5.87;;
11653;SDS011;5883;48.818;9.114;2023-01-19T00:05:21;10.13;;;5.80;;
11653;SDS011;5883;48.818;9.114;2023-01-19T00:07:48;10.03;;;6.40;;
11653;SDS011;5883;48.818;9.114;2023-01-19T00:10:14;11.03;;;6.60;;
11653;SDS011;5883;48.818;9.114;2023-01-19T00:12:42;9.97;;;6.00;;
11653;SDS011;5883;48.818;9.114;2023-01-19T00:15:09;10.07;;;6.57;;
11653;SDS011;5883;48.818;9.114;2023-01-19T00:17:35;12.70;;;6.37;;
11653;SDS011;5883;48.818;9.114;2023-01-19T00:20:05;10.03;;;6.10;;
11653;SDS011;5883;48.818;9.114;2023-01-19T00:22:32;10.63;;;6.87;;
11653;SDS011;5883;48.818;9.114;2023-01-19T00:24:58;11.80;;;6.03;;
11653;SDS011;5883;48.818;9.114;2023-01-19T00:27:25;10.67;;;6.90;;
11653;SDS011;5883;48.818;9.114;2023-01-19T00:29:53;9.50;;;6.33;;
11653;SDS011;5883;48.818;9.114;2023-01-19T00:32:19;9.37;;;6.37;;
11653;SDS011;5883;48.818;9.114;2023-01-19T00:34:46;9.20;;;5.73;;
11653;SDS011;5883;48.818;9.114;2023-01-19T00:37:13;8.33;;;5.97;;
11653;SDS011;5883;48.818;9.114;2023-01-19T00:39:40;10.80;;;6.13;;
11653;SDS011;5883;48.818;9.114;2023-01-19T00:42:07;10.03;;;6.23;;
11653;SDS011;5883;48.818;9.114;2023-01-19T00:44:52;7.30;;;5.67;;
11653;SDS011;5883;48.818;9.114;2023-01-19T00:47:19;9.83;;;7.07;;
11653;SDS011;5883;48.818;9.114;2023-01-19T00:49:45;8.33;;;6.23;;
11653;SDS011;5883;48.818;9.114;2023-01-19T00:52:12;10.47;;;6.30;;
11653;SDS011;5883;48.818;9.114;2023-01-19T00:54:38;11.57;;;6.87;;
11653;SDS011;5883;48.818;9.114;2023-01-19T00:57:05;9.90;;;6.57;;
11653;SDS011;5883;48.818;9.114;2023-01-19T00:59:31;8.70;;;5.80;;
11653;SDS011;5883;48.818;9.114;2023-01-19T01:01:59;10.53;;;6.40;;
11653;SDS011;5883;48.818;9.114;2023-01-19T01:04:25;12.57;;;7.20;;
11653;SDS011;5883;48.818;9.114;2023-01-19T01:06:51;8.87;;;6.30;;
11653;SDS011;5883;48.818;9.114;2023-01-19T01:09:18;8.03;;;6.50;;
11653;SDS011;5883;48.818;9.114;2023-01-19T01:11:44;8.93;;;6.70;;
11653;SDS011;5883;48.818;9.114;2023-01-19T01:14:11;8.13;;;6.30;;
11653;SDS011;5883;48.818;9.114;2023-01-19T01:16:37;9.70;;;6.43;;
11653;SDS011;5883;48.818;9.114;2023-01-19T01:19:05;9.23;;;6.00;;
11653;SDS011;5883;48.818;9.114;2023-01-19T01:21:31;8.30;;;5.93;;
11653;SDS011;5883;48.818;9.114;2023-01-19T01:23:58;10.47;;;6.03;;
11653;SDS011;5883;48.818;9.114;2023-01-19T01:26:25;6.83;;;5.57;;
11653;SDS011;5883;48.818;9.114;2023-01-19T01:28:51;7.73;;;5.73;;
11653;SDS011;5883;48.818;9.114;2023-01-19T01:31:17;8.90;;;6.23;;
11653;SDS011;5883;48.818;9.114;2023-01-19T01:33:44;8.83;;;5.50;;
11653;SDS011;5883;48.818;9.114;2023-01-19T01:36:12;11.57;;;6.17;;
11653;SDS011;5883;48.818;9.114;2023-01-19T01:38:38;10.37;;;6.47;;
11653;SDS011;5883;48.818;9.114;2023-01-19T01:41:05;8.33;;;6.10;;
11653;SDS011;5883;48.818;9.114;2023-01-19T01:43:41;8.47;;;6.03;;
11653;SDS011;5883;48.818;9.114;2023-01-19T01:46:08;9.60;;;6.13;;
11653;SDS011;5883;48.818;9.114;2023-01-19T01:48:35;7.87;;;6.23;;
11653;SDS011;5883;48.818;9.114;2023-01-19T01:51:03;11.33;;;6.13;;
11653;SDS011;5883;48.818;9.114;2023-01-19T01:53:50;10.53;;;5.90;;
11653;SDS011;5883;48.818;9.114;2023-01-19T01:56:20;9.80;;;6.70;;
11653;SDS011;5883;48.818;9.114;2023-01-19T01:58:46;7.93;;;5.90;;
11653;SDS011;5883;48.818;9.114;2023-01-19T02:01:13;11.47;;;6.57;;
11653;SDS011;5883;48.818;9.114;2023-01-19T02:03:57;9.50;;;6.60;;
11653;SDS011;5883;48.818;9.114;2023-01-19T02:06:24;10.27;;;6.10;;
11653;SDS011;5883;48.818;9.114;2023-01-19T02:08:53;11.40;;;6.80;;
11653;SDS011;5883;48.818;9.114;2023-01-19T02:11:39;10.67;;;6.03;;
11653;SDS011;5883;48.818;9.114;2023-01-19T02:14:24;11.17;;;7.30;;
11653;SDS011;5883;48.818;9.114;2023-01-19T02:16:50;10.30;;;5.90;;
11653;SDS011;5883;48.818;9.114;2023-01-19T02:19:17;8.37;;;5.93;;
11653;SDS011;5883;48.818;9.114;2023-01-19T02:21:49;8.40;;;6.03;;
11653;SDS011;5883;48.818;9.114;2023-01-19T02:24:19;10.50;;;6.40;;
11653;SDS011;5883;48.818;9.114;2023-01-19T02:26:46;11.33;;;7.13;;
11653;SDS011;5883;48.818;9.114;2023-01-19T02:29:14;10.67;;;7.20;;
11653;SDS011;5883;48.818;9.114;2023-01-19T02:31:41;10.27;;;6.83;;
11653;SDS011;5883;48.818;9.114;2023-01-19T02:34:10;8.37;;;6.10;;
11653;SDS011;5883;48.818;9.114;2023-01-19T02:36:37;8.83;;;6.20;;
11653;SDS011;5883;48.818;9.114;2023-01-19T02:39:06;8.17;;;6.47;;
11653;SDS011;5883;48.818;9.114;2023-01-19T02:41:37;8.00;;;5.80;;
11653;SDS011;5883;48.818;9.114;2023-01-19T02:44:04;7.70;;;5.80;;
11653;SDS011;5883;48.818;9.114;2023-01-19T02:46:32;9.47;;;6.13;;
11653;SDS011;5883;48.818;9.114;2023-01-19T02:48:58;8.67;;;5.63;;
11653;SDS011;5883;48.818;9.114;2023-01-19T02:51:26;8.53;;;5.53;;
11653;SDS011;5883;48.818;9.114;2023-01-19T02:56:41;7.70;;;5.90;;
11653;SDS011;5883;48.818;9.114;2023-01-19T02:59:10;9.63;;;6.40;;
11653;SDS011;5883;48.818;9.114;2023-01-19T03:01:41;9.60;;;5.80;;
11653;SDS011;5883;48.818;9.114;2023-01-19T03:04:13;8.63;;;6.23;;
11653;SDS011;5883;48.818;9.114;2023-01-19T03:06:43;8.13;;;5.97;;
11653;SDS011;5883;48.818;9.114;2023-01-19T03:09:12;9.70;;;6.17;;
11653;SDS011;5883;48.818;9.114;2023-01-19T03:11:41;8.93;;;6.20;;
11653;SDS011;5883;48.818;9.114;2023-01-19T03:14:10;7.90;;;5.93;;
11653;SDS011;5883;48.818;9.114;2023-01-19T03:16:38;7.27;;;5.73;;
11653;SDS011;5883;48.818;9.114;2023-01-19T03:19:07;9.23;;;6.00;;
11653;SDS011;5883;48.818;9.114;2023-01-19T03:21:36;9.33;;;5.40;;
11653;SDS011;5883;48.818;9.114;2023-01-19T03:24:03;8.43;;;5.90;;
11653;SDS011;5883;48.818;9.114;2023-01-19T03:26:33;10.33;;;5.47;;
11653;SDS011;5883;48.818;9.114;2023-01-19T03:29:03;8.23;;;5.40;;
11653;SDS011;5883;48.818;9.114;2023-01-19T03:31:31;8.13;;;6.03;;
11653;SDS011;5883;48.818;9.114;2023-01-19T03:33:59;8.77;;;6.20;;
11653;SDS011;5883;48.818;9.114;2023-01-19T03:36:28;9.10;;;5.83;;
11653;SDS011;5883;48.818;9.114;2023-01-19T03:38:56;6.97;;;5.67;;
11653;SDS011;5883;48.818;9.114;2023-01-19T03:41:23;10.10;;;5.63;;
11653;SDS011;5883;48.818;9.114;2023-01-19T03:43:50;10.87;;;6.20;;
11653;SDS011;5883;48.818;9.114;2023-01-19T03:46:20;12.00;;;5.80;;
11653;SDS011;5883;48.818;9.114;2023-01-19T03:48:46;10.53;;;5.80;;
11653;SDS011;5883;48.818;9.114;2023-01-19T03:51:13;7.40;;;5.60;;
11653;SDS011;5883;48.818;9.114;2023-01-19T03:53:40;7.73;;;5.47;;
11653;SDS011;5883;48.818;9.114;2023-01-19T03:56:08;7.90;;;5.63;;
11653;SDS011;5883;48.818;9.114;2023-01-19T03:58:36;7.73;;;5.83;;
11653;SDS011;5883;48.818;9.114;2023-01-19T04:01:03;8.07;;;6.13;;
11653;SDS011;5883;48.818;9.114;2023-01-19T04:03:30;7.90;;;5.60;;
11653;SDS011;5883;48.818;9.114;2023-01-19T04:05:57;9.33;;;5.70;;
11653;SDS011;5883;48.818;9.114;2023-01-19T04:08:24;8.90;;;6.03;;
11653;SDS011;5883;48.818;9.114;2023-01-19T04:10:50;7.73;;;5.70;;
11653;SDS011;5883;48.818;9.114;2023-01-19T04:13:16;8.43;;;5.30;;
11653;SDS011;5883;48.818;9.114;2023-01-19T04:15:43;11.27;;;6.00;;
11653;SDS011;5883;48.818;9.114;2023-01-19T04:18:09;7.23;;;5.50;;
11653;SDS011;5883;48.818;9.114;2023-01-19T04:20:37;7.53;;;5.43;;
11653;SDS011;5883;48.818;9.114;2023-01-19T04:23:03;12.03;;;5.87;;
11653;SDS011;5883;48.818;9.114;2023-01-19T04:25:30;7.87;;;5.53;;
11653;SDS011;5883;48.818;9.114;2023-01-19T04:27:57;8.13;;;5.50;;
11653;SDS011;5883;48.818;9.114;2023-01-19T04:30:23;7.03;;;5.53;;
11653;SDS011;5883;48.818;9.114;2023-01-19T04:32:50;6.13;;;4.80;;
11653;SDS011;5883;48.818;9.114;2023-01-19T04:35:17;10.17;;;6.27;;
11653;SDS011;5883;48.818;9.114;2023-01-19T04:37:45;8.93;;;5.93;;
11653;SDS011;5883;48.818;9.114;2023-01-19T04:40:11;9.37;;;5.37;;
11653;SDS011;5883;48.818;9.114;2023-01-19T04:42:41;7.30;;;5.60;;
11653;SDS011;5883;48.818;9.114;2023-01-19T04:45:08;7.07;;;5.07;;
11653;SDS011;5883;48.818;9.114;2023-01-19T04:47:34;7.30;;;5.27;;
11653;SDS011;5883;48.818;9.114;2023-01-19T04:50:01;7.57;;;5.53;;
11653;SDS011;5883;48.818;9.114;2023-01-19T04:52:30;5.93;;;5.13;;
11653;SDS011;5883;48.818;9.114;2023-01-19T04:55:00;8.77;;;5.93;;
11653;SDS011;5883;48.818;9.114;2023-01-19T04:57:27;8.03;;;5.53;;
11653;SDS011;5883;48.818;9.114;2023-01-19T04:59:54;6.83;;;5.60;;
11653;SDS011;5883;48.818;9.114;2023-01-19T05:02:20;9.53;;;6.10;;
11653;SDS011;5883;48.818;9.114;2023-01-19T05:04:47;10.00;;;5.23;;
11653;SDS011;5883;48.818;9.114;2023-01-19T05:07:14;10.23;;;5.70;;
11653;SDS011;5883;48.818;9.114;2023-01-19T05:09:40;10.70;;;5.87;;
11653;SDS011;5883;48.818;9.114;2023-01-19T05:12:08;10.50;;;5.87;;
11653;SDS011;5883;48.818;9.114;2023-01-19T05:14:35;9.30;;;5.80;;
11653;SDS011;5883;48.818;9.114;2023-01-19T05:17:02;7.63;;;5.60;;
11653;SDS011;5883;48.818;9.114;2023-01-19T05:19:29;8.17;;;6.03;;
11653;SDS011;5883;48.818;9.114;2023-01-19T05:21:55;13.20;;;5.97;;
11653;SDS011;5883;48.818;9.114;2023-01-19T05:24:22;9.20;;;6.00;;
11653;SDS011;5883;48.818;9.114;2023-01-19T05:26:48;9.27;;;5.53;;
11653;SDS011;5883;48.818;9.114;2023-01-19T05:29:16;9.20;;;5.63;;
11653;SDS011;5883;48.818;9.114;2023-01-19T05:31:43;10.33;;;5.43;;
11653;SDS011;5883;48.818;9.114;2023-01-19T05:34:09;8.17;;;5.23;;
11653;SDS011;5883;48.818;9.114;2023-01-19T05:36:36;10.80;;;5.87;;
11653;SDS011;5883;48.818;9.114;2023-01-19T05:39:02;5.70;;;4.80;;
11653;SDS011;5883;48.818;9.114;2023-01-19T05:41:29;8.97;;;5.77;;
11653;SDS011;5883;48.818;9.114;2023-01-19T05:43:55;8.70;;;5.90;;
11653;SDS011;5883;48.818;9.114;2023-01-19T05:46:23;9.07;;;5.57;;
11653;SDS011;5883;48.818;9.114;2023-01-19T05:48:50;7.23;;;5.23;;
11653;SDS011;5883;48.818;9.114;2023-01-19T05:51:16;7.23;;;5.10;;
11653;SDS011;5883;48.818;9.114;2023-01-19T05:53:43;7.83;;;5.23;;
11653;SDS011;5883;48.818;9.114;2023-01-19T05:56:09;7.90;;;5.30;;
11653;SDS011;5883;48.818;9.114;2023-01-19T05:58:36;9.27;;;6.33;;
11653;SDS011;5883;48.818;9.114;2023-01-19T06:01:03;13.57;;;6.13;;
11653;SDS011;5883;48.818;9.114;2023-01-19T06:03:32;8.43;;;6.20;;
11653;SDS011;5883;48.818;9.114;2023-01-19T06:05:58;8.30;;;6.00;;
11653;SDS011;5883;48.818;9.114;2023-01-19T06:08:25;7.33;;;5.67;;
11653;SDS011;5883;48.818;9.114;2023-01-19T06:10:51;10.53;;;6.53;;
11653;SDS011;5883;48.818;9.114;2023-01-19T06:13:18;10.33;;;5.70;;
11653;SDS011;5883;48.818;9.114;2023-01-19T06:15:44;8.87;;;6.33;;
11653;SDS011;5883;48.818;9.114;2023-01-19T06:18:11;7.80;;;5.83;;
11653;SDS011;5883;48.818;9.114;2023-01-19T06:20:40;8.47;;;5.70;;
11653;SDS011;5883;48.818;9.114;2023-01-19T06:23:06;7.63;;;6.13;;
11653;SDS011;5883;48.818;9.114;2023-01-19T06:25:34;8.20;;;6.23;;
11653;SDS011;5883;48.818;9.114;2023-01-19T06:28:01;9.80;;;6.07;;
11653;SDS011;5883;48.818;9.114;2023-01-19T06:30:27;9.20;;;6.00;;
11653;SDS011;5883;48.818;9.114;2023-01-19T06:32:54;8.77;;;6.20;;
11653;SDS011;5883;48.818;9.114;2023-01-19T06:35:20;9.80;;;6.50;;
11653;SDS011;5883;48.818;9.114;2023-01-19T06:37:48;8.67;;;6.17;;
11653;SDS011;5883;48.818;9.114;2023-01-19T06:40:15;12.03;;;6.93;;
11653;SDS011;5883;48.818;9.114;2023-01-19T06:42:41;13.83;;;8.53;;
11653;SDS011;5883;48.818;9.114;2023-01-19T06:45:08;11.90;;;7.70;;
11653;SDS011;5883;48.818;9.114;2023-01-19T06:47:35;17.40;;;10.40;;
11653;SDS011;5883;48.818;9.114;2023-01-19T06:50:01;14.33;;;9.33;;
11653;SDS011;5883;48.818;9.114;2023-01-19T06:52:28;12.93;;;7.50;;
11653;SDS011;5883;48.818;9.114;2023-01-19T06:54:56;10.83;;;7.37;;
11653;SDS011;5883;48.818;9.114;2023-01-19T06:57:22;9.57;;;6.47;;
11653;SDS011;5883;48.818;9.114;2023-01-19T06:59:50;9.10;;;5.93;;
11653;SDS011;5883;48.818;9.114;2023-01-19T07:02:16;6.10;;;5.20;;
11653;SDS011;5883;48.818;9.114;2023-01-19T07:04:47;7.30;;;5.63;;
11653;SDS011;5883;48.818;9.114;2023-01-19T07:07:14;8.37;;;5.57;;
11653;SDS011;5883;48.818;9.114;2023-01-19T07:09:44;7.40;;;5.30;;
11653;SDS011;5883;48.818;9.114;2023-01-19T07:12:12;8.40;;;5.83;;
11653;SDS011;5883;48.818;9.114;2023-01-19T07:14:38;12.40;;;6.30;;
11653;SDS011;5883;48.818;9.114;2023-01-19T07:17:05;7.90;;;6.00;;
11653;SDS011;5883;48.818;9.114;2023-01-19T07:19:31;9.57;;;6.50;;
11653;SDS011;5883;48.818;9.114;2023-01-19T07:21:59;8.00;;;5.97;;
11653;SDS011;5883;48.818;9.114;2023-01-19T07:24:26;7.73;;;6.07;;
11653;SDS011;5883;48.818;9.114;2023-01-19T07:26:54;8.97;;;5.97;;
11653;SDS011;5883;48.818;9.114;2023-01-19T07:29:26;10.13;;;5.87;;
11653;SDS011;5883;48.818;9.114;2023-01-19T07:31:53;8.33;;;5.80;;
11653;SDS011;5883;48.818;9.114;2023-01-19T07:34:19;9.30;;;5.83;;
11653;SDS011;5883;48.818;9.114;2023-01-19T07:36:46;8.37;;;5.70;;
11653;SDS011;5883;48.818;9.114;2023-01-19T07:39:13;8.53;;;5.17;;
11653;SDS011;5883;48.818;9.114;2023-01-19T07:41:39;7.03;;;5.13;;
11653;SDS011;5883;48.818;9.114;2023-01-19T07:44:05;6.87;;;5.10;;
11653;SDS011;5883;48.818;9.114;2023-01-19T07:46:34;7.93;;;4.97;;
11653;SDS011;5883;48.818;9.114;2023-01-19T07:49:00;7.03;;;5.50;;
11653;SDS011;5883;48.818;9.114;2023-01-19T07:51:27;6.07;;;4.57;;
11653;SDS011;5883;48.818;9.114;2023-01-19T07:53:53;7.57;;;5.23;;
11653;SDS011;5883;48.818;9.114;2023-01-19T07:56:20;7.83;;;5.27;;
11653;SDS011;5883;48.818;9.114;2023-01-19T07:58:49;8.60;;;5.37;;
11653;SDS011;5883;48.818;9.114;2023-01-19T08:01:21;8.53;;;5.80;;
11653;SDS011;5883;48.818;9.114;2023-01-19T08:03:49;8.77;;;6.23;;
11653;SDS011;5883;48.818;9.114;2023-01-19T08:06:18;10.17;;;6.93;;
11653;SDS011;5883;48.818;9.114;2023-01-19T08:08:45;13.83;;;7.37;;
11653;SDS011;5883;48.818;9.114;2023-01-19T08:11:11;8.27;;;5.57;;
11653;SDS011;5883;48.818;9.114;2023-01-19T08:13:38;11.30;;;5.50;;
11653;SDS011;5883;48.818;9.114;2023-01-19T08:16:04;7.33;;;5.30;;
11653;SDS011;5883;48.818;9.114;2023-01-19T08:18:31;7.03;;;4.83;;
11653;SDS011;5883;48.818;9.114;2023-01-19T08:20:59;5.60;;;4.10;;
11653;SDS011;5883;48.818;9.114;2023-01-19T08:23:26;9.37;;;4.50;;
11653;SDS011;5883;48.818;9.114;2023-01-19T08:25:53;6.83;;;4.30;;
11653;SDS011;5883;48.818;9.114;2023-01-19T08:28:20;5.27;;;3.70;;
11653;SDS011;5883;48.818;9.114;2023-01-19T08:30:46;6.43;;;4.63;;
11653;SDS011;5883;48.818;9.114;2023-01-19T08:33:18;6.67;;;4.53;;
11653;SDS011;5883;48.818;9.114;2023-01-19T08:35:46;5.27;;;3.97;;
11653;SDS011;5883;48.818;9.114;2023-01-19T08:38:14;6.33;;;4.27;;
11653;SDS011;5883;48.818;9.114;2023-01-19T08:40:41;6.47;;;3.80;;
11653;SDS011;5883;48.818;9.114;2023-01-19T08:43:08;4.03;;;3.60;;
11653;SDS011;5883;48.818;9.114;2023-01-19T08:45:35;5.40;;;4.00;;
11653;SDS011;5883;48.818;9.114;2023-01-19T08:48:02;7.70;;;4.00;;
11653;SDS011;5883;48.818;9.114;2023-01-19T08:50:29;5.90;;;3.70;;
11653;SDS011;5883;48.818;9.114;2023-01-19T08:52:56;7.33;;;3.60;;
11653;SDS011;5883;48.818;9.114;2023-01-19T08:55:24;6.20;;;4.30;;
11653;SDS011;5883;48.818;9.114;2023-01-19T08:57:50;4.80;;;4.00;;
11653;SDS011;5883;48.818;9.114;2023-01-19T09:00:18;8.50;;;4.00;;
11653;SDS011;5883;48.818;9.114;2023-01-19T09:02:44;5.70;;;4.20;;
11653;SDS011;5883;48.818;9.114;2023-01-19T09:05:11;5.00;;;3.73;;
11653;SDS011;5883;48.818;9.114;2023-01-19T09:07:39;5.17;;;4.07;;
11653;SDS011;5883;48.818;9.114;2023-01-19T09:10:06;5.53;;;3.97;;
11653;SDS011;5883;48.818;9.114;2023-01-19T09:12:34;4.37;;;3.77;;
11653;SDS011;5883;48.818;9.114;2023-01-19T09:15:01;6.47;;;3.57;;
11653;SDS011;5883;48.818;9.114;2023-01-19T09:17:27;7.43;;;3.67;;
11653;SDS011;5883;48.818;9.114;2023-01-19T09:19:53;4.53;;;3.43;;
11653;SDS011;5883;48.818;9.114;2023-01-19T09:22:20;4.93;;;4.10;;
11653;SDS011;5883;48.818;9.114;2023-01-19T09:24:46;7.00;;;4.10;;
11653;SDS011;5883;48.818;9.114;2023-01-19T09:27:13;6.70;;;4.50;;
11653;SDS011;5883;48.818;9.114;2023-01-19T09:29:41;6.18;;;3.80;;
11653;SDS011;5883;48.818;9.114;2023-01-19T09:32:14;6.80;;;4.30;;
11653;SDS011;5883;48.818;9.114;2023-01-19T09:34:40;6.32;;;4.05;;
11653;SDS011;5883;48.818;9.114;2023-01-19T09:37:07;5.70;;;4.03;;
11653;SDS011;5883;48.818;9.114;2023-01-19T09:39:33;5.90;;;4.28;;
11653;SDS011;5883;48.818;9.114;2023-01-19T09:42:01;4.82;;;3.60;;
11653;SDS011;5883;48.818;9.114;2023-01-19T09:44:32;5.95;;;3.95;;
11653;SDS011;5883;48.818;9.114;2023-01-19T09:47:01;5.78;;;4.28;;
11653;SDS011;5883;48.818;9.114;2023-01-19T09:49:30;5.70;;;3.97;;
11653;SDS011;5883;48.818;9.114;2023-01-19T09:51:58;4.57;;;3.72;;
11653;SDS011;5883;48.818;9.114;2023-01-19T09:54:27;4.85;;;3.90;;
11653;SDS011;5883;48.818;9.114;2023-01-19T09:56:54;6.20;;;3.60;;
11653;SDS011;5883;48.818;9.114;2023-01-19T09:59:21;6.30;;;3.75;;
11653;SDS011;5883;48.818;9.114;2023-01-19T10:01:55;5.38;;;3.35;;
11653;SDS011;5883;48.818;9.114;2023-01-19T10:04:27;6.35;;;3.38;;
11653;SDS011;5883;48.818;9.114;2023-01-19T10:06:57;5.57;;;3.40;;
11653;SDS011;5883;48.818;9.114;2023-01-19T10:09:26;4.47;;;3.33;;
11653;SDS011;5883;48.818;9.114;2023-01-19T10:11:58;5.75;;;3.50;;
11653;SDS011;5883;48.818;9.114;2023-01-19T10:14:27;4.85;;;3.20;;
11653;SDS011;5883;48.818;9.114;2023-01-19T10:16:59;3.70;;;2.97;;
11653;SDS011;5883;48.818;9.114;2023-01-19T10:19:31;6.43;;;3.70;;
11653;SDS011;5883;48.818;9.114;2023-01-19T10:22:02;5.60;;;3.63;;
11653;SDS011;5883;48.818;9.114;2023-01-19T10:24:31;6.43;;;3.45;;
11653;SDS011;5883;48.818;9.114;2023-01-19T10:27:02;5.40;;;3.67;;
11653;SDS011;5883;48.818;9.114;2023-01-19T10:29:35;3.28;;;2.90;;
11653;SDS011;5883;48.818;9.114;2023-01-19T10:32:03;5.93;;;3.67;;
11653;SDS011;5883;48.818;9.114;2023-01-19T10:34:31;5.43;;;3.40;;
11653;SDS011;5883;48.818;9.114;2023-01-19T10:37:01;6.32;;;3.92;;
11653;SDS011;5883;48.818;9.114;2023-01-19T10:39:29;3.92;;;3.40;;
11653;SDS011;5883;48.818;9.114;2023-01-19T10:41:56;5.32;;;3.45;;
11653;SDS011;5883;48.818;9.114;2023-01-19T10:44:25;4.00;;;3.63;;
11653;SDS011;5883;48.818;9.114;2023-01-19T10:46:52;8.93;;;3.83;;
11653;SDS011;5883;48.818;9.114;2023-01-19T10:49:23;4.18;;;3.22;;
11653;SDS011;5883;48.818;9.114;2023-01-19T10:51:54;9.82;;;4.15;;
11653;SDS011;5883;48.818;9.114;2023-01-19T10:54:23;5.13;;;3.83;;
11653;SDS011;5883;48.818;9.114;2023-01-19T10:56:54;5.75;;;3.72;;
11653;SDS011;5883;48.818;9.114;2023-01-19T10:59:31;4.73;;;3.67;;
11653;SDS011;5883;48.818;9.114;2023-01-19T11:02:02;6.07;;;3.70;;
11653;SDS011;5883;48.818;9.114;2023-01-19T11:04:30;5.43;;;3.70;;
11653;SDS011;5883;48.818;9.114;2023-01-19T11:07:10;4.40;;;3.38;;
11653;SDS011;5883;48.818;9.114;2023-01-19T11:09:37;4.40;;;3.83;;
11653;SDS011;5883;48.818;9.114;2023-01-19T11:12:04;5.33;;;3.60;;
11653;SDS011;5883;48.818;9.114;2023-01-19T11:14:31;3.83;;;3.27;;
11653;SDS011;5883;48.818;9.114;2023-01-19T11:16:57;5.50;;;3.50;;
11653;SDS011;5883;48.818;9.114;2023-01-19T11:19:25;5.07;;;3.53;;
11653;SDS011;5883;48.818;9.114;2023-01-19T11:21:52;5.90;;;3.60;;
11653;SDS011;5883;48.818;9.114;2023-01-19T11:24:20;5.72;;;3.38;;
11653;SDS011;5883;48.818;9.114;2023-01-19T11:26:48;5.18;;;3.17;;
11653;SDS011;5883;48.818;9.114;2023-01-19T11:29:16;6.65;;;3.30;;
11653;SDS011;5883;48.818;9.114;2023-01-19T11:31:44;5.93;;;3.67;;
11653;SDS011;5883;48.818;9.114;2023-01-19T11:36:59;5.18;;;3.17;;
11653;SDS011;5883;48.818;9.114;2023-01-19T11:39:28;3.63;;;3.20;;
11653;SDS011;5883;48.818;9.114;2023-01-19T11:41:55;5.93;;;3.25;;
11653;SDS011;5883;48.818;9.114;2023-01-19T11:44:22;6.20;;;3.53;;
11653;SDS011;5883;48.818;9.114;2023-01-19T11:46:51;3.55;;;3.03;;
11653;SDS011;5883;48.818;9.114;2023-01-19T11:49:20;4.13;;;3.00;;
11653;SDS011;5883;48.818;9.114;2023-01-19T11:51:51;5.43;;;3.22;;
11653;SDS011;5883;48.818;9.114;2023-01-19T11:54:22;4.18;;;3.22;;
11653;SDS011;5883;48.818;9.114;2023-01-19T11:56:53;4.57;;;3.00;;
11653;SDS011;5883;48.818;9.114;2023-01-19T11:59:20;3.40;;;3.10;;
11653;SDS011;5883;48.818;9.114;2023-01-19T12:01:48;5.35;;;3.60;;
11653;SDS011;5883;48.818;9.114;2023-01-19T12:04:19;5.13;;;3.60;;
11653;SDS011;5883;48.818;9.114;2023-01-19T12:06:51;4.40;;;3.13;;
11653;SDS011;5883;48.818;9.114;2023-01-19T12:09:19;6.07;;;3.53;;
11653;SDS011;5883;48.818;9.114;2023-01-19T12:11:47;7.53;;;3.05;;
11653;SDS011;5883;48.818;9.114;2023-01-19T12:14:18;4.57;;;3.17;;
11653;SDS011;5883;48.818;9.114;2023-01-19T12:16:46;4.40;;;3.38;;
11653;SDS011;5883;48.818;9.114;2023-01-19T12:19:15;3.85;;;3.17;;
11653;SDS011;5883;48.818;9.114;2023-01-19T12:21:43;6.22;;;4.18;;
11653;SDS011;5883;48.818;9.114;2023-01-19T12:24:12;5.97;;;3.95;;
11653;SDS011;5883;48.818;9.114;2023-01-19T12:26:42;7.22;;;3.85;;
11653;SDS011;5883;48.818;9.114;2023-01-19T12:29:11;4.90;;;3.53;;
11653;SDS011;5883;48.818;9.114;2023-01-19T12:31:39;7.00;;;3.83;;
11653;SDS011;5883;48.818;9.114;2023-01-19T12:36:55;4.57;;;3.20;;
11653;SDS011;5883;48.818;9.114;2023-01-19T12:39:24;5.13;;;3.35;;
11653;SDS011;5883;48.818;9.114;2023-01-19T12:42:02;6.25;;;3.83;;
11653;SDS011;5883;48.818;9.114;2023-01-19T12:44:30;4.25;;;3.67;;
11653;SDS011;5883;48.818;9.114;2023-01-19T12:47:01;4.13;;;3.33;;
11653;SDS011;5883;48.818;9.114;2023-01-19T12:49:44;11.93;;;3.90;;
11653;SDS011;5883;48.818;9.114;2023-01-19T12:52:16;8.10;;;4.82;;
11653;SDS011;5883;48.818;9.114;2023-01-19T12:54:48;5.70;;;4.20;;
11653;SDS011;5883;48.818;9.114;2023-01-19T12:57:16;4.32;;;3.75;;
11653;SDS011;5883;48.818;9.114;2023-01-19T12:59:44;4.97;;;4.13;;
11653;SDS011;5883;48.818;9.114;2023-01-19T13:05:13;7.25;;;4.70;;
11653;SDS011;5883;48.818;9.114;2023-01-19T13:13:15;8.60;;;5.07;;
11653;SDS011;5883;48.818;9.114;2023-01-19T13:15:42;5.85;;;4.70;;
11653;SDS011;5883;48.818;9.114;2023-01-19T13:18:08;7.63;;;4.72;;
11653;SDS011;5883;48.818;9.114;2023-01-19T13:20:42;8.57;;;4.28;;
11653;SDS011;5883;48.818;9.114;2023-01-19T13:23:20;6.70;;;4.32;;
11653;SDS011;5883;48.818;9.114;2023-01-19T13:25:50;5.70;;;4.25;;
11653;SDS011;5883;48.818;9.114;2023-01-19T13:28:18;7.10;;;4.93;;
11653;SDS011;5883;48.818;9.114;2023-01-19T13:30:50;7.75;;;5.18;;
11653;SDS011;5883;48.818;9.114;2023-01-19T13:33:20;5.15;;;4.40;;
11653;SDS011;5883;48.818;9.114;2023-01-19T13:35:52;5.82;;;4.30;;
11653;SDS011;5883;48.818;9.114;2023-01-19T13:38:20;5.95;;;4.47;;
11653;SDS011;5883;48.818;9.114;2023-01-19T13:40:47;6.72;;;4.55;;
11653;SDS011;5883;48.818;9.114;2023-01-19T13:43:14;8.00;;;5.35;;
11653;SDS011;5883;48.818;9.114;2023-01-19T13:45:45;9.63;;;6.50;;
11653;SDS011;5883;48.818;9.114;2023-01-19T13:48:13;9.27;;;4.97;;
11653;SDS011;5883;48.818;9.114;2023-01-19T13:50:41;7.00;;;4.55;;
11653;SDS011;5883;48.818;9.114;2023-01-19T13:53:19;7.07;;;5.10;;
11653;SDS011;5883;48.818;9.114;2023-01-19T13:55:50;10.00;;;6.38;;
11653;SDS011;5883;48.818;9.114;2023-01-19T13:58:30;7.45;;;4.70;;
11653;SDS011;5883;48.818;9.114;2023-01-19T14:00:57;5.93;;;4.90;;
11653;SDS011;5883;48.818;9.114;2023-01-19T14:03:23;7.03;;;4.45;;
11653;SDS011;5883;48.818;9.114;2023-01-19T14:05:51;10.65;;;4.90;;
11653;SDS011;5883;48.818;9.114;2023-01-19T14:08:17;6.00;;;4.55;;
11653;SDS011;5883;48.818;9.114;2023-01-19T14:10:46;8.68;;;5.28;;
11653;SDS011;5883;48.818;9.114;2023-01-19T14:13:13;23.90;;;10.38;;
11653;SDS011;5883;48.818;9.114;2023-01-19T14:15:40;14.10;;;8.52;;
11653;SDS011;5883;48.818;9.114;2023-01-19T14:18:08;12.82;;;8.43;;
11653;SDS011;5883;48.818;9.114;2023-01-19T14:20:35;9.05;;;6.20;;
11653;SDS011;5883;48.818;9.114;2023-01-19T14:23:02;8.30;;;5.63;;
11653;SDS011;5883;48.818;9.114;2023-01-19T14:25:29;10.45;;;7.55;;
11653;SDS011;5883;48.818;9.114;2023-01-19T14:30:52;9.95;;;6.25;;
11653;SDS011;5883;48.818;9.114;2023-01-19T14:33:31;7.40;;;5.10;;
11653;SDS011;5883;48.818;9.114;2023-01-19T14:36:06;7.07;;;5.22;;
11653;SDS011;5883;48.818;9.114;2023-01-19T14:38:33;6.10;;;5.20;;
11653;SDS011;5883;48.818;9.114;2023-01-19T14:41:00;6.53;;;4.65;;
11653;SDS011;5883;48.818;9.114;2023-01-19T14:43:26;8.02;;;5.22;;
11653;SDS011;5883;48.818;9.114;2023-01-19T14:45:55;7.57;;;5.40;;
11653;SDS011;5883;48.818;9.114;2023-01-19T14:48:21;8.32;;;5.40;;
11653;SDS011;5883;48.818;9.114;2023-01-19T14:50:49;7.05;;;5.40;;
11653;SDS011;5883;48.818;9.114;2023-01-19T14:53:25;7.82;;;4.80;;
11653;SDS011;5883;48.818;9.114;2023-01-19T14:55:54;8.38;;;5.20;;
11653;SDS011;5883;48.818;9.114;2023-01-19T14:58:23;7.00;;;5.30;;
11653;SDS011;5883;48.818;9.114;2023-01-19T15:00:49;6.65;;;5.15;;
11653;SDS011;5883;48.818;9.114;2023-01-19T15:03:21;7.68;;;5.20;;
11653;SDS011;5883;48.818;9.114;2023-01-19T15:05:47;6.82;;;5.45;;
11653;SDS011;5883;48.818;9.114;2023-01-19T15:08:15;8.00;;;4.88;;
11653;SDS011;5883;48.818;9.114;2023-01-19T15:10:42;6.85;;;4.95;;
11653;SDS011;5883;48.818;9.114;2023-01-19T15:13:09;6.57;;;5.03;;
11653;SDS011;5883;48.818;9.114;2023-01-19T15:15:41;7.68;;;4.88;;
11653;SDS011;5883;48.818;9.114;2023-01-19T15:18:07;8.50;;;5.50;;
11653;SDS011;5883;48.818;9.114;2023-01-19T15:20:37;7.20;;;5.15;;
11653;SDS011;5883;48.818;9.114;2023-01-19T15:23:04;8.18;;;5.07;;